Time;durP1;ratioP1;P1;durP2;ratioP2;P2;SDS_P1;SDS_P2;PMS_P1;PMS_P2;Temp;Humidity;BMP_temperature;BMP_pressure;BME280_temperature;BME280_humidity;BME280_pressure;Samples;Min_cycle;Max_cycle;Signal;HPM_P1;HPM_P2
2023/05/03 03:05:50;;;;;;;1.65;0.50;;;6.80;99.90;;;;;;5920867;23;20034;31
2023/05/03 03:08:16;;;;;;;0.63;0.50;;;6.80;99.90;;;;;;4840130;29;20318;-83
2023/05/03 03:10:42;;;;;;;1.17;0.93;;;6.80;99.90;;;;;;4826010;29;20058;-84
2023/05/03 03:13:08;;;;;;;0.70;0.40;;;6.80;99.90;;;;;;4826082;29;20394;-83
2023/05/03 03:15:34;;;;;;;0.68;0.50;;;6.80;99.90;;;;;;4826234;29;20057;-83
2023/05/03 03:18:00;;;;;;;1.05;0.73;;;6.80;99.90;;;;;;4842158;29;20046;-83
2023/05/03 03:20:25;;;;;;;0.40;0.40;;;6.70;99.90;;;;;;4842076;29;20146;-82
2023/05/03 03:22:51;;;;;;;2.00;0.40;;;6.70;99.90;;;;;;4842181;29;20049;-83
2023/05/03 03:25:18;;;;;;;1.65;0.50;;;7.60;99.90;;;;;;4842083;29;20058;-83
2023/05/03 03:27:44;;;;;;;1.08;0.57;;;6.70;99.90;;;;;;4841948;29;20403;-82
2023/05/03 03:30:13;;;;;;;0.70;0.43;;;6.40;99.90;;;;;;4842407;29;20054;-82
2023/05/03 03:32:39;;;;;;;0.40;0.40;;;6.70;99.90;;;;;;4825586;29;20050;-82
2023/05/03 03:35:05;;;;;;;0.47;0.47;;;6.60;99.90;;;;;;4842119;29;20089;-82
2023/05/03 03:37:31;;;;;;;1.33;0.47;;;6.60;99.90;;;;;;4842038;29;20065;-83
2023/05/03 03:39:57;;;;;;;1.38;0.40;;;6.60;99.90;;;;;;4825566;29;20050;-82
2023/05/03 03:42:24;;;;;;;0.98;0.60;;;6.60;99.90;;;;;;4841850;29;20182;-83
2023/05/03 03:44:50;;;;;;;1.27;0.38;;;6.50;99.90;;;;;;4842286;29;20049;-82
2023/05/03 03:47:16;;;;;;;0.50;0.40;;;6.50;99.90;;;;;;4841998;29;20111;-82
2023/05/03 03:49:42;;;;;;;0.70;0.40;;;6.40;99.90;;;;;;4841904;29;20046;-84
2023/05/03 03:52:07;;;;;;;0.40;0.40;;;6.40;99.90;;;;;;4841914;29;20050;-82
2023/05/03 03:54:34;;;;;;;0.43;0.40;;;6.50;99.90;;;;;;4841812;29;20074;-83
2023/05/03 03:57:01;;;;;;;0.73;0.40;;;6.40;99.90;;;;;;4841194;29;20502;-84
2023/05/03 03:59:28;;;;;;;0.50;0.30;;;6.40;99.90;;;;;;4841916;29;20049;-84
2023/05/03 04:01:54;;;;;;;2.65;0.50;;;6.40;99.90;;;;;;4825433;29;20106;-83
2023/05/03 04:04:20;;;;;;;0.30;0.30;;;6.40;99.90;;;;;;4841702;29;20053;-83
2023/05/03 04:06:48;;;;;;;0.57;0.35;;;6.40;99.90;;;;;;4841398;29;20050;-83
2023/05/03 04:09:16;;;;;;;0.63;0.45;;;6.40;99.90;;;;;;4841726;29;20456;-83
2023/05/03 04:11:42;;;;;;;1.15;0.70;;;6.20;99.90;;;;;;4841547;29;20057;-83
2023/05/03 04:14:07;;;;;;;0.57;0.43;;;6.40;99.90;;;;;;4841519;29;20050;-83
2023/05/03 04:16:33;;;;;;;0.65;0.52;;;6.50;99.90;;;;;;4841620;29;20057;-82
2023/05/03 04:19:00;;;;;;;1.90;0.80;;;6.50;99.90;;;;;;4844624;29;20085;-83
2023/05/03 04:21:27;;;;;;;0.88;0.50;;;6.30;99.90;;;;;;4845112;29;20082;-82
2023/05/03 04:23:53;;;;;;;2.22;0.80;;;6.50;99.90;;;;;;4845071;29;20045;-83
2023/05/03 04:26:21;;;;;;;1.38;0.40;;;6.60;99.90;;;;;;4813490;29;20395;-83
2023/05/03 04:28:47;;;;;;;0.52;0.52;;;6.60;99.90;;;;;;4828387;29;20054;-83
2023/05/03 04:31:13;;;;;;;0.43;0.40;;;6.70;99.90;;;;;;4844783;29;20049;-83
2023/05/03 04:33:39;;;;;;;2.70;0.70;;;7.50;99.90;;;;;;4844905;29;20042;-83
2023/05/03 04:36:06;;;;;;;1.13;0.60;;;6.80;99.90;;;;;;4844895;29;20049;-83
2023/05/03 04:38:32;;;;;;;0.45;0.40;;;6.70;99.90;;;;;;4844836;29;20038;-83
2023/05/03 04:41:01;;;;;;;2.95;0.68;;;7.60;99.90;;;;;;4844659;29;20143;-82
2023/05/03 04:43:26;;;;;;;1.15;0.60;;;6.90;99.90;;;;;;4844774;29;20081;-83
2023/05/03 04:45:52;;;;;;;1.65;0.68;;;6.40;99.90;;;;;;4844715;29;20121;-82
2023/05/03 04:48:18;;;;;;;0.68;0.45;;;6.90;99.90;;;;;;4844641;29;20079;-83
2023/05/03 04:50:44;;;;;;;1.13;0.50;;;7.40;99.90;;;;;;4827864;29;20060;-82
2023/05/03 04:53:10;;;;;;;2.70;0.80;;;6.90;99.90;;;;;;4844476;29;20049;-82
2023/05/03 04:55:35;;;;;;;1.00;0.70;;;6.90;99.90;;;;;;4828037;29;20060;-82
2023/05/03 04:58:01;;;;;;;1.25;0.50;;;7.40;99.90;;;;;;4844228;29;20503;-83
2023/05/03 05:00:27;;;;;;;3.15;0.68;;;7.50;99.90;;;;;;4844471;29;20566;-83
2023/05/03 05:02:53;;;;;;;0.93;0.50;;;7.00;99.90;;;;;;4827995;29;20046;-83
2023/05/03 05:05:19;;;;;;;1.52;0.50;;;7.00;99.90;;;;;;4827612;29;20406;-83
2023/05/03 05:07:45;;;;;;;1.00;0.50;;;7.90;99.90;;;;;;4812709;29;20064;-83
2023/05/03 05:10:11;;;;;;;0.77;0.45;;;7.10;99.90;;;;;;4844228;29;20054;-83
2023/05/03 05:12:37;;;;;;;0.88;0.60;;;7.10;99.90;;;;;;4827493;29;20057;-82
2023/05/03 05:15:03;;;;;;;2.97;0.52;;;7.20;99.90;;;;;;4827694;29;20525;-83
2023/05/03 05:17:29;;;;;;;1.58;0.50;;;7.30;99.90;;;;;;4844245;29;20038;-81
2023/05/03 05:19:55;;;;;;;1.65;0.93;;;8.00;99.90;;;;;;4844086;29;20050;-82
2023/05/03 05:22:21;;;;;;;0.57;0.40;;;7.30;99.90;;;;;;4827406;29;20232;-82
2023/05/03 05:24:47;;;;;;;0.50;0.40;;;7.40;99.90;;;;;;4827530;29;20054;-82
2023/05/03 05:27:12;;;;;;;2.08;0.50;;;7.40;99.90;;;;;;4843476;29;20126;-82
2023/05/03 05:29:38;;;;;;;1.15;0.30;;;7.40;99.90;;;;;;4843483;29;20118;-82
2023/05/03 05:32:04;;;;;;;0.77;0.32;;;8.20;99.90;;;;;;4844108;29;20067;-83
2023/05/03 05:34:31;;;;;;;1.75;0.30;;;7.50;99.90;;;;;;4843708;29;20518;-82
2023/05/03 05:36:57;;;;;;;0.60;0.45;;;7.60;99.90;;;;;;4843868;29;20129;-82
2023/05/03 05:39:23;;;;;;;2.25;0.40;;;7.60;99.90;;;;;;4843657;29;20133;-82
2023/05/03 05:41:51;;;;;;;2.75;0.40;;;7.60;99.90;;;;;;4843607;29;20042;-82
2023/05/03 05:44:17;;;;;;;0.50;0.30;;;7.40;99.90;;;;;;4843169;29;20514;-82
2023/05/03 05:46:43;;;;;;;0.57;0.40;;;8.20;99.90;;;;;;4843625;29;20085;-82
2023/05/03 05:49:09;;;;;;;0.55;0.38;;;7.80;99.90;;;;;;4843656;29;20053;-82
2023/05/03 05:51:35;;;;;;;2.42;0.40;;;7.80;99.90;;;;;;4827226;29;20160;-83
2023/05/03 05:54:00;;;;;;;0.50;0.30;;;7.80;99.90;;;;;;4843489;29;20053;-82
2023/05/03 05:56:26;;;;;;;0.70;0.30;;;8.50;99.90;;;;;;4843371;29;20102;-83
2023/05/03 05:58:52;;;;;;;0.65;0.40;;;8.00;99.90;;;;;;4842577;29;20404;-82
2023/05/03 06:01:18;;;;;;;1.85;0.32;;;8.00;99.90;;;;;;4825882;29;20444;-83
2023/05/03 06:03:43;;;;;;;0.70;0.30;;;8.10;99.90;;;;;;4843269;29;20041;-82
2023/05/03 06:06:09;;;;;;;1.58;0.40;;;8.10;99.90;;;;;;4843185;29;20057;-82
2023/05/03 06:08:35;;;;;;;2.22;0.50;;;8.20;99.90;;;;;;4843246;29;20061;-82
2023/05/03 06:11:01;;;;;;;2.40;0.40;;;8.00;99.90;;;;;;4843288;29;20529;-82
2023/05/03 06:13:27;;;;;;;0.95;0.38;;;8.70;99.90;;;;;;4843152;29;20115;-82
2023/05/03 06:15:53;;;;;;;0.68;0.68;;;8.20;99.90;;;;;;4842861;29;20045;-82
2023/05/03 06:18:18;;;;;;;0.25;0.25;;;8.30;99.90;;;;;;4826166;29;20050;-81
2023/05/03 06:20:48;;;;;;;0.50;0.30;;;8.30;99.90;;;;;;4843234;29;20050;-82
2023/05/03 06:23:14;;;;;;;0.43;0.30;;;8.40;99.90;;;;;;4827084;29;20054;-82
2023/05/03 06:25:40;;;;;;;1.73;0.30;;;8.40;99.90;;;;;;4826317;29;20415;-82
2023/05/03 06:28:06;;;;;;;1.52;0.32;;;8.60;99.90;;;;;;4842918;29;20044;-82
2023/05/03 06:30:32;;;;;;;0.82;0.40;;;8.50;99.90;;;;;;4842733;29;20132;-81
2023/05/03 06:33:30;;;;;;;2.10;0.40;;;8.50;99.90;;;;;;4843046;29;20057;-88
2023/05/03 06:35:57;;;;;;;0.38;0.28;;;8.60;99.90;;;;;;4753466;30;20055;-83
2023/05/03 06:38:27;;;;;;;0.40;0.30;;;8.70;99.90;;;;;;4768527;30;20052;-86
2023/05/03 06:48:14;;;;;;;0.50;0.40;;;8.70;99.90;;;;;;4768655;30;20122;-82
2023/05/03 06:50:40;;;;;;;1.27;0.30;;;8.80;99.90;;;;;;4749183;30;20131;-81
2023/05/03 06:53:05;;;;;;;1.27;0.30;;;8.80;99.90;;;;;;4753481;30;20066;-83
2023/05/03 06:55:31;;;;;;;1.23;0.40;;;8.80;99.90;;;;;;4753119;30;20136;-82
2023/05/03 06:57:57;;;;;;;0.70;0.30;;;9.60;99.90;;;;;;4768637;30;20055;-82
2023/05/03 07:00:26;;;;;;;1.85;0.40;;;8.90;99.90;;;;;;4753568;30;20402;-83
2023/05/03 07:02:52;;;;;;;0.20;0.20;;;8.90;99.90;;;;;;4768793;30;20551;-82
2023/05/03 07:05:18;;;;;;;1.15;0.40;;;9.00;99.90;;;;;;4768063;30;20111;-83
2023/05/03 07:07:45;;;;;;;0.63;0.30;;;9.10;99.90;;;;;;4767921;30;20062;-82
2023/05/03 07:10:13;;;;;;;0.43;0.30;;;9.00;99.90;;;;;;4767617;30;20420;-83
2023/05/03 07:12:39;;;;;;;0.50;0.30;;;9.10;99.90;;;;;;4816293;29;20129;-83
2023/05/03 07:15:06;;;;;;;0.93;0.32;;;9.20;99.90;;;;;;4841936;29;20133;-83
2023/05/03 07:17:32;;;;;;;1.90;0.40;;;9.20;99.90;;;;;;4825290;29;20053;-84
2023/05/03 07:19:57;;;;;;;2.42;0.40;;;9.20;99.90;;;;;;4825239;29;20054;-85
2023/05/03 07:22:24;;;;;;;0.40;0.40;;;9.50;99.90;;;;;;4807161;29;20047;-84
2023/05/03 07:24:59;;;;;;;0.77;0.30;;;9.30;99.90;;;;;;4822664;29;20512;-82
2023/05/03 07:27:28;;;;;;;0.90;0.30;;;9.30;99.90;;;;;;4824075;29;20046;-83
2023/05/03 07:29:54;;;;;;;0.98;0.40;;;9.40;99.90;;;;;;4824132;29;20103;-83
2023/05/03 07:32:22;;;;;;;0.77;0.40;;;9.40;99.90;;;;;;4824158;29;20046;-83
2023/05/03 07:34:48;;;;;;;1.25;0.40;;;9.70;99.90;;;;;;4823799;29;20050;-83
2023/05/03 07:37:14;;;;;;;1.15;0.40;;;9.40;99.90;;;;;;4804930;29;20057;-83
2023/05/03 07:39:40;;;;;;;0.30;0.30;;;9.50;99.90;;;;;;4825510;29;20430;-83
2023/05/03 07:42:09;;;;;;;2.65;0.50;;;9.50;99.90;;;;;;4841716;29;20410;-82
2023/05/03 07:44:35;;;;;;;4.60;0.60;;;9.50;99.90;;;;;;4841884;29;20056;-82
2023/05/03 07:47:03;;;;;;;0.30;0.30;;;9.60;99.90;;;;;;4825726;29;20050;-83
2023/05/03 07:49:34;;;;;;;1.48;0.30;;;9.50;99.90;;;;;;4825627;29;20050;-83
2023/05/03 07:52:03;;;;;;;0.85;0.30;;;9.50;99.90;;;;;;4827000;29;20038;-89
2023/05/03 07:54:51;;;;;;;0.65;0.40;;;9.70;99.90;;;;;;4814152;29;20134;-87
2023/05/03 07:57:17;;;;;;;1.40;0.30;;;9.70;99.90;;;;;;4829264;29;20052;-82
2023/05/03 07:59:43;;;;;;;0.80;0.30;;;9.70;99.90;;;;;;4828709;29;20323;-85
2023/05/03 08:02:09;;;;;;;1.75;0.50;;;10.10;99.90;;;;;;4829042;29;20129;-83
2023/05/03 08:04:35;;;;;;;2.45;0.30;;;9.80;99.90;;;;;;4828620;29;20073;-81
2023/05/03 08:07:01;;;;;;;1.08;0.80;;;9.80;99.90;;;;;;4845153;29;20094;-82
2023/05/03 08:09:31;;;;;;;3.20;0.55;;;9.90;99.90;;;;;;4827997;29;20065;-82
2023/05/03 08:11:57;;;;;;;0.30;0.30;;;9.80;99.90;;;;;;4828493;29;20033;-83
2023/05/03 08:14:26;;;;;;;1.85;0.50;;;10.00;99.90;;;;;;4845271;29;20139;-83
2023/05/03 08:16:52;;;;;;;1.65;0.40;;;10.00;99.90;;;;;;4829130;29;20050;-83
2023/05/03 08:19:21;;;;;;;0.50;0.30;;;10.10;99.90;;;;;;4810158;29;20042;-85
2023/05/03 08:21:47;;;;;;;0.68;0.50;;;10.20;99.90;;;;;;4810573;29;20392;-84
2023/05/03 08:24:13;;;;;;;5.43;0.30;;;10.20;99.90;;;;;;4811209;29;20416;-84
2023/05/03 08:33:45;;;;;;;3.03;0.77;;;10.40;99.90;;;;;;4844776;29;20050;-83
2023/05/03 08:36:11;;;;;;;1.55;0.40;;;10.40;99.90;;;;;;4844706;29;20042;-84
2023/05/03 08:38:40;;;;;;;2.13;0.45;;;10.40;99.90;;;;;;4843877;29;20042;-84
2023/05/03 08:49:08;;;;;;;0.80;0.30;;;10.40;99.90;;;;;;4844620;29;20045;-82
2023/05/03 08:51:40;;;;;;;0.50;0.40;;;10.20;99.90;;;;;;4828201;29;20061;-83
2023/05/03 08:54:07;;;;;;;0.85;0.30;;;10.20;99.90;;;;;;4813017;29;20049;-83
2023/05/03 08:56:42;;;;;;;1.17;0.30;;;10.20;99.90;;;;;;4844925;29;20042;-83
2023/05/03 08:59:11;;;;;;;2.05;0.40;;;10.30;99.90;;;;;;4828166;29;20057;-84
2023/05/03 09:01:41;;;;;;;0.65;0.30;;;10.30;99.90;;;;;;4827443;29;20062;-84
2023/05/03 09:04:10;;;;;;;0.98;0.38;;;10.20;99.90;;;;;;4843925;29;20490;-84
2023/05/03 09:06:40;;;;;;;2.72;0.40;;;10.30;99.90;;;;;;4844287;29;20106;-85
2023/05/03 09:09:09;;;;;;;0.43;0.30;;;10.40;99.90;;;;;;4843530;29;20084;-84
2023/05/03 09:11:38;;;;;;;1.67;0.40;;;10.50;99.90;;;;;;4844691;29;20046;-85
2023/05/03 09:14:08;;;;;;;3.13;0.40;;;10.50;99.90;;;;;;4844802;29;20492;-85
2023/05/03 09:16:34;;;;;;;1.20;0.30;;;10.30;99.90;;;;;;4828836;29;20159;-86
2023/05/03 09:19:03;;;;;;;0.55;0.40;;;10.30;99.90;;;;;;4844773;29;20125;-84
2023/05/03 09:21:32;;;;;;;2.55;0.50;;;10.50;99.90;;;;;;4844413;29;20053;-84
2023/05/03 09:23:58;;;;;;;0.95;0.30;;;10.60;99.90;;;;;;4844480;29;20457;-84
2023/05/03 09:26:28;;;;;;;1.00;0.40;;;10.60;99.90;;;;;;4844654;29;20049;-85
2023/05/03 09:28:55;;;;;;;1.83;0.60;;;10.80;99.90;;;;;;4828341;29;20073;-84
2023/05/03 09:31:24;;;;;;;1.00;0.40;;;10.50;99.90;;;;;;4844756;29;20042;-84
2023/05/03 09:33:52;;;;;;;1.80;0.38;;;10.50;99.90;;;;;;4812728;29;20042;-85
2023/05/03 09:36:21;;;;;;;0.82;0.40;;;10.60;99.90;;;;;;4844416;29;20046;-87
2023/05/03 09:38:50;;;;;;;1.65;0.43;;;10.60;99.90;;;;;;4827708;29;20050;-84
2023/05/03 09:41:28;;;;;;;0.63;0.45;;;10.70;99.90;;;;;;4827541;29;20061;-84
2023/05/03 09:43:55;;;;;;;1.38;0.30;;;10.60;99.90;;;;;;4827025;29;20456;-82
2023/05/03 09:46:26;;;;;;;1.17;0.30;;;10.60;99.90;;;;;;4842665;29;20089;-83
2023/05/03 09:48:54;;;;;;;3.08;0.40;;;10.80;99.90;;;;;;4844675;29;20121;-86
2023/05/03 09:51:23;;;;;;;6.28;0.55;;;10.90;99.90;;;;;;4811843;29;20057;-87
2023/05/03 09:53:52;;;;;;;2.13;0.63;;;11.10;99.90;;;;;;4828135;29;20457;-84
2023/05/03 09:56:21;;;;;;;4.20;0.43;;;11.00;99.90;;;;;;4812674;29;20054;-86
2023/05/03 09:58:47;;;;;;;1.55;0.45;;;11.10;99.90;;;;;;4827893;29;20054;-87
2023/05/03 10:01:16;;;;;;;1.27;0.40;;;11.10;99.90;;;;;;4828046;29;20057;-84
2023/05/03 10:03:46;;;;;;;0.60;0.30;;;11.10;99.90;;;;;;4827461;29;20042;-84
2023/05/03 10:06:21;;;;;;;1.38;0.40;;;11.20;99.90;;;;;;4827310;29;20046;-87
2023/05/03 10:09:25;;;;;;;2.22;0.30;;;11.30;99.90;;;;;;4843020;29;20126;-88
2023/05/03 10:11:58;;;;;;;1.60;0.35;;;11.40;99.90;;;;;;4842452;29;20042;-84
2023/05/03 10:14:27;;;;;;;1.08;0.25;;;11.60;99.90;;;;;;4843092;29;20065;-83
2023/05/03 10:17:07;;;;;;;1.65;0.40;;;11.60;99.90;;;;;;4843316;29;20518;-84
2023/05/03 10:19:39;;;;;;;1.77;0.40;;;11.90;99.90;;;;;;4826765;29;20404;-83
2023/05/03 10:22:07;;;;;;;1.85;0.40;;;11.80;98.40;;;;;;4843672;29;20081;-85
2023/05/03 10:24:36;;;;;;;0.52;0.25;;;11.80;99.30;;;;;;4842918;29;20050;-83
2023/05/03 10:27:06;;;;;;;2.85;0.40;;;11.80;99.90;;;;;;4843353;29;20046;-84
2023/05/03 10:29:34;;;;;;;0.52;0.20;;;11.80;99.30;;;;;;4842952;29;20045;-83
2023/05/03 10:32:13;;;;;;;0.70;0.20;;;11.70;98.70;;;;;;4829801;29;20050;-88
2023/05/03 10:34:41;;;;;;;0.75;0.30;;;11.90;99.50;;;;;;4827325;29;20132;-84
2023/05/03 10:37:10;;;;;;;1.10;0.40;;;12.30;99.90;;;;;;4828824;29;20049;-89
2023/05/03 10:39:46;;;;;;;1.83;0.30;;;13.00;99.90;;;;;;4833376;29;20461;-86
2023/05/03 10:45:46;;;;;;;4.25;0.50;;;13.20;98.50;;;;;;4844034;29;19977;-84
2023/05/03 10:48:12;;;;;;;2.80;0.60;;;13.10;97.60;;;;;;4844295;29;20046;-84
2023/05/03 10:50:39;;;;;;;3.45;0.50;;;13.20;96.90;;;;;;4827689;29;20057;-85
2023/05/03 10:53:05;;;;;;;2.83;0.40;;;13.10;98.80;;;;;;4829762;29;20050;-81
2023/05/03 10:55:31;;;;;;;0.93;0.30;;;13.20;99.00;;;;;;4829017;29;20513;-81
2023/05/03 10:57:58;;;;;;;1.08;0.40;;;13.20;98.40;;;;;;4828475;29;20049;-84
2023/05/03 11:00:36;;;;;;;3.50;0.40;;;13.20;99.00;;;;;;4842890;29;20050;-83
2023/05/03 11:03:20;;;;;;;1.30;0.40;;;13.10;99.90;;;;;;4826914;29;20415;-83
2023/05/03 11:05:50;;;;;;;2.92;0.47;;;13.00;99.60;;;;;;4842801;29;20050;-83
2023/05/03 11:08:21;;;;;;;0.80;0.40;;;12.90;99.40;;;;;;4823490;29;20046;-84
2023/05/03 11:10:59;;;;;;;2.53;0.57;;;12.80;99.60;;;;;;4824765;29;20499;-82
2023/05/03 11:13:28;;;;;;;1.75;0.43;;;13.00;99.90;;;;;;4824913;29;20083;-84
2023/05/03 11:15:55;;;;;;;2.38;0.40;;;12.60;99.90;;;;;;4823182;29;20054;-85
2023/05/03 11:18:21;;;;;;;3.00;0.57;;;12.60;99.90;;;;;;4823012;29;20050;-84
2023/05/03 11:20:48;;;;;;;2.83;0.40;;;12.70;99.80;;;;;;4806310;29;20054;-85
2023/05/03 11:23:18;;;;;;;2.20;0.40;;;12.40;98.90;;;;;;4805115;29;20138;-84
2023/05/03 11:25:43;;;;;;;2.88;0.50;;;12.70;99.90;;;;;;4807876;29;20563;-83
2023/05/03 11:28:09;;;;;;;1.23;0.50;;;12.90;99.40;;;;;;4824742;29;20052;-84
2023/05/03 11:30:36;;;;;;;1.67;0.50;;;12.40;98.70;;;;;;4824545;29;20054;-84
2023/05/03 11:33:02;;;;;;;1.52;0.40;;;12.50;99.70;;;;;;4837760;29;20046;-83
2023/05/03 11:35:31;;;;;;;0.52;0.40;;;12.70;99.90;;;;;;4824414;29;20454;-83
2023/05/03 11:37:57;;;;;;;2.03;0.43;;;12.80;99.90;;;;;;4822807;29;20081;-83
2023/05/03 11:40:23;;;;;;;2.80;0.40;;;12.90;99.90;;;;;;4835797;29;20516;-85
2023/05/03 11:42:57;;;;;;;2.20;0.47;;;13.20;99.40;;;;;;4822163;29;20138;-87
2023/05/03 11:45:29;;;;;;;1.63;0.47;;;12.90;98.90;;;;;;4825054;29;20458;-88
2023/05/03 11:47:55;;;;;;;2.10;0.50;;;12.90;98.50;;;;;;4826221;29;20062;-88
2023/05/03 11:50:43;;;;;;;1.48;0.50;;;13.20;99.90;;;;;;4823980;29;20114;-86
2023/05/03 11:53:13;;;;;;;3.05;0.55;;;13.40;98.90;;;;;;4825430;29;20082;-84
2023/05/03 11:55:46;;;;;;;3.70;0.60;;;13.20;98.10;;;;;;4824223;29;20047;-84
2023/05/03 11:58:25;;;;;;;2.20;0.65;;;13.10;99.60;;;;;;4826019;29;20051;-89
2023/05/03 12:00:54;;;;;;;1.98;0.50;;;13.00;99.00;;;;;;4823763;29;20062;-84
2023/05/03 12:03:26;;;;;;;0.77;0.40;;;13.20;98.60;;;;;;4839207;29;20404;-84
2023/05/03 12:05:52;;;;;;;0.75;0.30;;;13.20;99.30;;;;;;4823331;29;20050;-86
2023/05/03 12:08:21;;;;;;;1.27;0.50;;;13.20;99.20;;;;;;4825313;29;20059;-84
2023/05/03 12:10:50;;;;;;;1.70;0.50;;;13.20;98.50;;;;;;4824651;29;20134;-87
2023/05/03 12:13:35;;;;;;;2.50;0.40;;;13.20;99.20;;;;;;4823950;29;20513;-84
2023/05/03 12:16:03;;;;;;;6.15;0.68;;;13.20;98.80;;;;;;4824897;29;20050;-86
2023/05/03 12:18:48;;;;;;;3.33;0.55;;;13.10;98.70;;;;;;4825482;29;20054;-85
2023/05/03 12:21:14;;;;;;;2.55;0.57;;;13.40;99.90;;;;;;4823629;29;20076;-85
2023/05/03 12:23:41;;;;;;;2.35;0.68;;;13.40;98.60;;;;;;4824645;29;20047;-85
2023/05/03 12:26:13;;;;;;;1.13;0.40;;;13.50;98.50;;;;;;4823404;29;20042;-86
2023/05/03 12:28:48;;;;;;;0.90;0.40;;;13.30;98.80;;;;;;4822719;29;20050;-88
2023/05/03 12:31:14;;;;;;;1.35;0.60;;;13.60;98.90;;;;;;4822764;29;20054;-86
2023/05/03 12:33:40;;;;;;;1.98;0.40;;;13.50;98.50;;;;;;4821474;29;20055;-82
2023/05/03 12:36:07;;;;;;;1.60;0.30;;;13.50;98.30;;;;;;4823608;29;20133;-86
2023/05/03 12:38:33;;;;;;;0.57;0.25;;;14.00;98.50;;;;;;4823463;29;20521;-87
2023/05/03 12:41:02;;;;;;;1.17;0.40;;;13.70;97.30;;;;;;4825553;29;20061;-88
2023/05/03 12:43:28;;;;;;;1.05;0.40;;;13.60;98.40;;;;;;4808520;29;20451;-89
2023/05/03 12:45:55;;;;;;;1.70;0.30;;;13.70;98.30;;;;;;4817651;29;20050;-86
2023/05/03 12:48:23;;;;;;;3.10;0.40;;;13.70;98.10;;;;;;4823207;29;20050;-90
2023/05/03 12:50:49;;;;;;;3.13;0.40;;;13.50;97.80;;;;;;4826867;29;20050;-87
2023/05/03 12:53:15;;;;;;;3.70;0.50;;;13.70;98.90;;;;;;4824632;29;20113;-85
2023/05/03 12:55:41;;;;;;;0.68;0.40;;;13.80;97.20;;;;;;4826099;29;20047;-87
2023/05/03 12:58:10;;;;;;;0.77;0.40;;;14.00;98.50;;;;;;4812131;29;20054;-86
2023/05/03 13:00:36;;;;;;;1.45;0.40;;;13.90;96.30;;;;;;4825258;29;20116;-82
2023/05/03 13:04:15;;;;;;;0.40;0.22;;;14.30;97.90;;;;;;4841147;29;20103;-89
2023/05/03 13:06:45;;;;;;;1.80;0.30;;;14.10;97.30;;;;;;4754264;30;20051;-86
2023/05/03 13:09:21;;;;;;;2.70;0.57;;;14.50;96.50;;;;;;4770131;30;20142;-88
2023/05/03 13:12:02;;;;;;;1.23;0.45;;;14.30;96.20;;;;;;4755187;30;20446;-86
2023/05/03 13:14:47;;;;;;;;;;;;;;;;;;;;;
2023/05/03 13:17:19;;;;;;;2.13;0.30;;;13.80;98.10;;;;;;4723533;30;20058;-86
2023/05/03 14:16:32;;;;;;;3.10;0.50;;;14.70;98.50;;;;;;5079980;24;20435;-84
2023/05/03 14:18:58;;;;;;;1.08;0.50;;;14.60;96.30;;;;;;4844199;29;20064;-84
2023/05/03 14:21:25;;;;;;;3.15;1.00;;;14.50;96.40;;;;;;4801682;29;20058;-87
2023/05/03 14:24:12;;;;;;;4.63;0.68;;;14.80;96.70;;;;;;4793379;29;20074;-88
2023/05/03 14:26:58;;;;;;;2.58;0.63;;;14.50;96.70;;;;;;4828140;29;20127;-85
2023/05/03 14:29:26;;;;;;;2.88;0.60;;;14.10;96.90;;;;;;4825185;29;20061;-81
2023/05/03 14:31:53;;;;;;;3.50;0.70;;;14.00;96.30;;;;;;4811762;29;20086;-80
2023/05/03 14:34:22;;;;;;;3.33;0.60;;;14.20;96.10;;;;;;4806879;29;20552;-81
2023/05/03 14:36:48;;;;;;;1.08;0.60;;;14.50;97.10;;;;;;4806490;29;20047;-80
2023/05/03 14:39:13;;;;;;;1.25;0.60;;;14.80;96.60;;;;;;4806420;29;20054;-80
2023/05/03 14:41:39;;;;;;;1.17;0.70;;;15.30;95.60;;;;;;4807421;29;20473;-81
2023/05/03 14:44:06;;;;;;;1.80;0.63;;;15.50;95.60;;;;;;4818230;29;20050;-80
2023/05/03 14:46:32;;;;;;;0.95;0.60;;;15.60;95.20;;;;;;4824669;29;20093;-81
2023/05/03 14:48:58;;;;;;;1.15;0.63;;;15.60;95.30;;;;;;4824635;29;20073;-80
2023/05/03 14:51:23;;;;;;;2.95;0.50;;;15.00;95.50;;;;;;4820124;29;20054;-80
2023/05/03 14:53:49;;;;;;;2.50;0.50;;;14.60;94.70;;;;;;4790248;29;20046;-82
2023/05/03 14:56:18;;;;;;;1.88;0.73;;;14.10;95.10;;;;;;4806587;29;20047;-80
2023/05/03 14:58:43;;;;;;;2.63;0.50;;;14.10;96.00;;;;;;4789786;29;20050;-80
2023/05/03 15:01:17;;;;;;;1.45;0.47;;;14.20;95.00;;;;;;4789252;29;20347;-82
2023/05/03 15:03:42;;;;;;;1.20;0.50;;;14.40;95.50;;;;;;4808051;29;20058;-81
2023/05/03 15:06:08;;;;;;;3.63;0.80;;;14.80;95.90;;;;;;4806071;29;20057;-81
2023/05/03 15:08:38;;;;;;;3.97;1.05;;;15.00;95.10;;;;;;4806229;29;20589;-80
2023/05/03 15:11:06;;;;;;;1.55;0.60;;;15.30;95.00;;;;;;4806093;29;20133;-81
2023/05/03 15:13:32;;;;;;;2.75;0.65;;;14.80;95.00;;;;;;4808448;29;20507;-81
2023/05/03 15:15:58;;;;;;;1.67;0.70;;;14.50;94.30;;;;;;4813052;29;20051;-85
2023/05/03 15:18:26;;;;;;;6.03;0.75;;;14.40;94.60;;;;;;4813697;29;20067;-89
2023/05/03 15:20:53;;;;;;;3.60;0.50;;;14.40;95.40;;;;;;4807900;29;20050;-85
2023/05/03 15:23:24;;;;;;;5.57;2.17;;;14.90;95.80;;;;;;4842701;29;20069;-86
2023/05/03 15:25:50;;;;;;;6.07;1.17;;;15.10;94.30;;;;;;4837975;29;20124;-87
2023/05/03 15:28:16;;;;;;;1.92;0.50;;;14.70;95.40;;;;;;4811195;29;20046;-84
2023/05/03 15:30:41;;;;;;;1.23;0.38;;;14.10;94.90;;;;;;4777997;29;20138;-84
2023/05/03 15:33:11;;;;;;;3.70;1.00;;;13.80;96.50;;;;;;4789820;29;20054;-88
2023/05/03 15:35:40;;;;;;;1.85;0.85;;;13.70;97.30;;;;;;4789910;29;20062;-87
2023/05/03 15:38:06;;;;;;;2.38;0.65;;;14.00;96.30;;;;;;4814662;29;20046;-85
2023/05/03 15:40:32;;;;;;;1.85;0.70;;;13.90;96.00;;;;;;4791607;29;20058;-85
2023/05/03 15:42:57;;;;;;;4.18;0.80;;;13.80;96.90;;;;;;4791592;29;20111;-84
2023/05/03 15:45:25;;;;;;;3.03;0.60;;;13.90;96.20;;;;;;4789743;29;20050;-83
2023/05/03 15:47:53;;;;;;;2.75;0.50;;;13.80;97.00;;;;;;4807266;29;20508;-84
2023/05/03 15:50:19;;;;;;;1.48;0.60;;;14.10;97.00;;;;;;4791871;29;20538;-84
2023/05/03 15:52:45;;;;;;;1.17;0.60;;;14.20;96.70;;;;;;4774415;29;20051;-85
2023/05/03 15:55:11;;;;;;;2.38;0.60;;;14.00;95.70;;;;;;4805681;29;20127;-83
2023/05/03 15:57:45;;;;;;;2.03;0.40;;;13.90;95.90;;;;;;4774728;29;20556;-86
2023/05/03 16:00:12;;;;;;;2.15;0.60;;;13.60;96.80;;;;;;4810843;29;20484;-85
2023/05/03 16:02:41;;;;;;;0.65;0.43;;;13.60;97.40;;;;;;4800873;29;20056;-82
2023/05/03 16:05:08;;;;;;;1.48;0.50;;;13.20;96.90;;;;;;4786933;29;20180;-87
2023/05/03 16:07:34;;;;;;;1.35;0.70;;;13.00;96.90;;;;;;4815300;29;20107;-86
2023/05/03 16:10:00;;;;;;;4.95;0.88;;;13.20;97.60;;;;;;4774346;29;20061;-85
2023/05/03 16:12:26;;;;;;;2.78;0.50;;;13.20;98.00;;;;;;4797084;29;20133;-84
2023/05/03 16:14:52;;;;;;;1.17;0.40;;;13.30;97.30;;;;;;4790577;29;20046;-83
2023/05/03 16:17:34;;;;;;;2.88;0.40;;;13.10;97.80;;;;;;4806550;29;20059;-88
2023/05/03 16:20:00;;;;;;;3.92;0.73;;;12.90;97.50;;;;;;4807174;29;20046;-85
2023/05/03 16:22:26;;;;;;;2.00;0.57;;;12.50;98.20;;;;;;4803559;29;20053;-85
2023/05/03 16:24:52;;;;;;;1.85;0.40;;;12.40;98.80;;;;;;4793014;29;20400;-80
2023/05/03 16:27:18;;;;;;;1.92;0.75;;;12.20;99.80;;;;;;4794285;29;20453;-82
2023/05/03 16:29:44;;;;;;;2.63;0.68;;;11.90;99.30;;;;;;4808970;29;20046;-82
2023/05/03 16:32:10;;;;;;;0.40;0.35;;;11.70;99.50;;;;;;4793454;29;20128;-80
2023/05/03 16:34:36;;;;;;;1.83;0.50;;;11.70;99.90;;;;;;4808662;29;20050;-81
2023/05/03 16:37:02;;;;;;;1.30;0.40;;;11.80;99.90;;;;;;4808644;29;20038;-81
2023/05/03 16:39:28;;;;;;;1.50;0.57;;;11.80;99.90;;;;;;4808343;29;20055;-80
2023/05/03 16:41:54;;;;;;;2.13;0.40;;;11.80;99.90;;;;;;4799184;29;20116;-81
2023/05/03 16:44:20;;;;;;;2.45;0.50;;;11.70;99.90;;;;;;4824749;29;20110;-80
2023/05/03 16:46:46;;;;;;;2.03;0.40;;;11.70;99.90;;;;;;4810554;29;20055;-82
2023/05/03 16:49:12;;;;;;;2.88;0.60;;;11.60;99.90;;;;;;4815327;29;20043;-84
2023/05/03 16:51:39;;;;;;;1.23;0.40;;;11.50;99.90;;;;;;4792338;29;20059;-84
2023/05/03 16:54:05;;;;;;;4.10;1.08;;;11.50;99.90;;;;;;4817691;29;20121;-83
2023/05/03 16:56:31;;;;;;;3.60;0.75;;;11.20;99.90;;;;;;4810269;29;20161;-82
2023/05/03 16:58:58;;;;;;;2.95;0.68;;;11.20;99.90;;;;;;4826204;29;20107;-82
2023/05/03 17:01:24;;;;;;;2.28;0.50;;;11.10;99.90;;;;;;4825906;29;20047;-82
2023/05/03 17:03:49;;;;;;;0.90;0.50;;;11.10;99.90;;;;;;4807654;29;20046;-82
2023/05/03 17:06:17;;;;;;;3.20;0.80;;;11.00;99.90;;;;;;4807844;29;20526;-82
2023/05/03 17:08:43;;;;;;;1.67;0.60;;;11.00;99.90;;;;;;4808233;29;20139;-82
2023/05/03 17:11:12;;;;;;;2.67;0.73;;;11.00;99.90;;;;;;4791695;29;20051;-83
2023/05/03 17:13:38;;;;;;;3.95;0.60;;;10.90;99.90;;;;;;4808063;29;20051;-81
2023/05/03 17:16:13;;;;;;;2.10;0.50;;;10.90;99.90;;;;;;4812799;29;20117;-82
2023/05/03 17:18:42;;;;;;;1.10;0.70;;;10.90;99.90;;;;;;4787009;29;20160;-84
2023/05/03 17:21:09;;;;;;;0.65;0.40;;;10.70;99.90;;;;;;4794555;29;20082;-84
2023/05/03 17:23:36;;;;;;;0.95;0.50;;;10.80;99.90;;;;;;4798101;29;20053;-85
2023/05/03 17:26:04;;;;;;;0.90;0.70;;;10.70;99.90;;;;;;4808307;29;20047;-83